GBATI EGNH-EGCB
Flight info
| Callsign | GBATI |
|---|---|
| Flight time | 0h 21m |
| Altitude | 1300 |
| Route | V |
| Aircraft | P28B/L-SDFGYR/S |
Departure
| Time | 2026-04-23 15:12 |
|---|---|
| Airport | Blackpool Airport (EGNH) |
Arrival
| Time | 2026-04-23 15:33 |
|---|---|
| Airport | Manchester Barton Aerodrome (EGCB) |
| Time | Latitude | Longitude | Altitude | Speed | Heading |
|---|---|---|---|---|---|
| 2026-04-23 15:06 | 53.77833 | -3.03825 | 34 ft | 0 kts | 178° |
| 2026-04-23 15:09 | 53.77781 | -3.03911 | 34 ft | 20 kts | 254° |
| 2026-04-23 15:09 | 53.77698 | -3.04106 | 34 ft | 21 kts | 211° |
| 2026-04-23 15:09 | 53.77576 | -3.04233 | 34 ft | 21 kts | 212° |
| 2026-04-23 15:09 | 53.77452 | -3.04362 | 34 ft | 21 kts | 208° |
| 2026-04-23 15:10 | 53.77358 | -3.04395 | 34 ft | 21 kts | 178° |
| 2026-04-23 15:10 | 53.77321 | -3.04386 | 34 ft | 0 kts | 164° |
| 2026-04-23 15:10 | 53.77318 | -3.04385 | 34 ft | 4 kts | 164° |
| 2026-04-23 15:10 | 53.77230 | -3.04302 | 33 ft | 19 kts | 113° |
| 2026-04-23 15:11 | 53.77221 | -3.04216 | 32 ft | 22 kts | 96° |
| 2026-04-23 15:11 | 53.77184 | -3.03541 | 84 ft | 84 kts | 99° |
| 2026-04-23 15:11 | 53.77115 | -3.02512 | 419 ft | 94 kts | 101° |
| 2026-04-23 15:11 | 53.76979 | -3.01358 | 589 ft | 106 kts | 112° |
| 2026-04-23 15:12 | 53.76486 | -3.00579 | 1007 ft | 95 kts | 155° |
| 2026-04-23 15:12 | 53.75880 | -3.00277 | 1412 ft | 92 kts | 167° |
| 2026-04-23 15:12 | 53.75174 | -3.00533 | 1574 ft | 115 kts | 195° |
| 2026-04-23 15:12 | 53.74428 | -3.01106 | 1836 ft | 117 kts | 200° |
| 2026-04-23 15:13 | 53.73675 | -3.01774 | 1998 ft | 128 kts | 202° |
| 2026-04-23 15:13 | 53.72877 | -3.02487 | 2101 ft | 132 kts | 203° |
| 2026-04-23 15:13 | 53.72051 | -3.03221 | 2157 ft | 136 kts | 203° |
| 2026-04-23 15:13 | 53.71199 | -3.03924 | 2189 ft | 139 kts | 198° |
| 2026-04-23 15:14 | 53.70285 | -3.04362 | 2153 ft | 134 kts | 172° |
| 2026-04-23 15:14 | 53.69433 | -3.03939 | 2280 ft | 125 kts | 156° |
| 2026-04-23 15:14 | 53.68622 | -3.03453 | 2409 ft | 122 kts | 156° |
| 2026-04-23 15:14 | 53.67853 | -3.02902 | 2531 ft | 118 kts | 143° |
| 2026-04-23 15:15 | 53.67204 | -3.02002 | 2523 ft | 128 kts | 139° |
| 2026-04-23 15:15 | 53.66496 | -3.01012 | 2378 ft | 135 kts | 139° |
| 2026-04-23 15:15 | 53.65758 | -2.99992 | 2231 ft | 139 kts | 139° |
| 2026-04-23 15:15 | 53.65012 | -2.98949 | 2078 ft | 139 kts | 139° |
| 2026-04-23 15:16 | 53.64387 | -2.97749 | 1914 ft | 139 kts | 112° |
| 2026-04-23 15:16 | 53.64069 | -2.96184 | 1767 ft | 143 kts | 114° |
| 2026-04-23 15:16 | 53.63654 | -2.94680 | 1620 ft | 144 kts | 116° |
| 2026-04-23 15:16 | 53.63210 | -2.93229 | 1453 ft | 130 kts | 117° |
| 2026-04-23 15:17 | 53.62816 | -2.91988 | 1313 ft | 111 kts | 117° |
| 2026-04-23 15:17 | 53.62488 | -2.90939 | 1299 ft | 95 kts | 118° |
| 2026-04-23 15:17 | 53.62189 | -2.89996 | 1298 ft | 90 kts | 119° |
| 2026-04-23 15:17 | 53.61899 | -2.89080 | 1287 ft | 88 kts | 118° |
| 2026-04-23 15:18 | 53.61706 | -2.88475 | 1288 ft | 89 kts | 118° |
| 2026-04-23 15:18 | 53.61311 | -2.87230 | 1289 ft | 91 kts | 117° |
| 2026-04-23 15:18 | 53.61011 | -2.86286 | 1297 ft | 91 kts | 117° |
| 2026-04-23 15:18 | 53.60716 | -2.85358 | 1294 ft | 91 kts | 118° |
| 2026-04-23 15:19 | 53.60417 | -2.84422 | 1304 ft | 91 kts | 118° |
| 2026-04-23 15:19 | 53.60112 | -2.83464 | 1298 ft | 92 kts | 117° |
| 2026-04-23 15:19 | 53.59814 | -2.82525 | 1296 ft | 89 kts | 117° |
| 2026-04-23 15:19 | 53.59522 | -2.81608 | 1289 ft | 88 kts | 117° |
| 2026-04-23 15:20 | 53.59332 | -2.81007 | 1294 ft | 88 kts | 117° |
| 2026-04-23 15:20 | 53.58942 | -2.79791 | 1286 ft | 88 kts | 116° |
| 2026-04-23 15:20 | 53.58656 | -2.78894 | 1287 ft | 86 kts | 116° |
| 2026-04-23 15:20 | 53.58377 | -2.78017 | 1285 ft | 84 kts | 115° |
| 2026-04-23 15:21 | 53.58105 | -2.77167 | 1293 ft | 82 kts | 116° |
| 2026-04-23 15:21 | 53.57829 | -2.76298 | 1294 ft | 85 kts | 117° |
| 2026-04-23 15:21 | 53.57553 | -2.75436 | 1307 ft | 85 kts | 118° |
| 2026-04-23 15:21 | 53.57264 | -2.74529 | 1299 ft | 89 kts | 118° |
| 2026-04-23 15:22 | 53.56969 | -2.73608 | 1305 ft | 91 kts | 118° |
| 2026-04-23 15:22 | 53.56666 | -2.72660 | 1298 ft | 91 kts | 118° |
| 2026-04-23 15:22 | 53.56360 | -2.71743 | 1303 ft | 88 kts | 124° |
| 2026-04-23 15:22 | 53.55927 | -2.71009 | 1280 ft | 91 kts | 137° |
| 2026-04-23 15:23 | 53.55407 | -2.70394 | 1317 ft | 90 kts | 143° |
| 2026-04-23 15:23 | 53.54853 | -2.69854 | 1321 ft | 93 kts | 149° |
| 2026-04-23 15:23 | 53.54299 | -2.69402 | 1464 ft | 85 kts | 150° |
| 2026-04-23 15:23 | 53.53682 | -2.69149 | 1352 ft | 97 kts | 162° |
| 2026-04-23 15:24 | 53.53128 | -2.68703 | 1384 ft | 87 kts | 137° |
| 2026-04-23 15:24 | 53.52554 | -2.68320 | 1291 ft | 100 kts | 174° |
| 2026-04-23 15:24 | 53.51856 | -2.68501 | 1168 ft | 105 kts | 193° |
| 2026-04-23 15:24 | 53.51296 | -2.68018 | 1092 ft | 99 kts | 113° |
| 2026-04-23 15:25 | 53.51053 | -2.67006 | 1187 ft | 87 kts | 110° |
| 2026-04-23 15:25 | 53.50816 | -2.66063 | 1133 ft | 88 kts | 112° |
| 2026-04-23 15:25 | 53.50658 | -2.65438 | 1116 ft | 88 kts | 111° |
| 2026-04-23 15:25 | 53.50318 | -2.64187 | 1151 ft | 84 kts | 115° |
| 2026-04-23 15:26 | 53.50042 | -2.63286 | 1127 ft | 90 kts | 120° |
| 2026-04-23 15:26 | 53.49617 | -2.62502 | 1120 ft | 93 kts | 140° |
| 2026-04-23 15:26 | 53.49224 | -2.62162 | 1124 ft | 95 kts | 157° |
| 2026-04-23 15:26 | 53.48370 | -2.61788 | 1119 ft | 96 kts | 160° |
| 2026-04-23 15:27 | 53.47725 | -2.61567 | 1171 ft | 94 kts | 163° |
| 2026-04-23 15:27 | 53.47068 | -2.61321 | 1096 ft | 98 kts | 162° |
| 2026-04-23 15:27 | 53.46424 | -2.61053 | 1172 ft | 92 kts | 159° |
| 2026-04-23 15:27 | 53.45836 | -2.60672 | 1157 ft | 94 kts | 143° |
| 2026-04-23 15:28 | 53.45522 | -2.59750 | 1174 ft | 96 kts | 93° |
| 2026-04-23 15:28 | 53.45609 | -2.59015 | 1188 ft | 98 kts | 78° |
| 2026-04-23 15:28 | 53.45862 | -2.57601 | 1175 ft | 95 kts | 77° |
| 2026-04-23 15:28 | 53.45997 | -2.56529 | 1191 ft | 92 kts | 82° |
| 2026-04-23 15:29 | 53.46082 | -2.55489 | 1210 ft | 89 kts | 96° |
| 2026-04-23 15:29 | 53.45724 | -2.54602 | 1144 ft | 101 kts | 141° |
| 2026-04-23 15:29 | 53.45160 | -2.53901 | 1054 ft | 97 kts | 125° |
| 2026-04-23 15:29 | 53.44882 | -2.52882 | 1105 ft | 96 kts | 102° |
| 2026-04-23 15:30 | 53.44762 | -2.52152 | 1103 ft | 99 kts | 103° |
| 2026-04-23 15:30 | 53.44585 | -2.51060 | 1100 ft | 97 kts | 102° |
| 2026-04-23 15:30 | 53.44413 | -2.49958 | 994 ft | 98 kts | 94° |
| 2026-04-23 15:30 | 53.44730 | -2.48563 | 939 ft | 95 kts | 71° |
| 2026-04-23 15:31 | 53.44767 | -2.47560 | 998 ft | 87 kts | 85° |
| 2026-04-23 15:31 | 53.45008 | -2.46566 | 965 ft | 98 kts | 59° |
| 2026-04-23 15:31 | 53.45442 | -2.45592 | 853 ft | 111 kts | 56° |
| 2026-04-23 15:31 | 53.45743 | -2.44943 | 871 ft | 98 kts | 55° |
| 2026-04-23 15:32 | 53.46217 | -2.43915 | 764 ft | 71 kts | 54° |
| 2026-04-23 15:32 | 53.46396 | -2.43479 | 622 ft | 66 kts | 59° |
| 2026-04-23 15:32 | 53.46638 | -2.42827 | 567 ft | 71 kts | 61° |
| 2026-04-23 15:32 | 53.46860 | -2.42034 | 490 ft | 76 kts | 71° |
| 2026-04-23 15:33 | 53.46977 | -2.41203 | 393 ft | 71 kts | 78° |
| 2026-04-23 15:33 | 53.47048 | -2.40406 | 285 ft | 68 kts | 81° |
| 2026-04-23 15:33 | 53.47110 | -2.39598 | 122 ft | 70 kts | 79° |
| 2026-04-23 15:33 | 53.47164 | -2.38882 | 74 ft | 47 kts | 82° |
| 2026-04-23 15:34 | 53.47180 | -2.38631 | 77 ft | 13 kts | 84° |
| 2026-04-23 15:34 | 53.47139 | -2.38549 | 74 ft | 9 kts | 226° |
| 2026-04-23 15:34 | 53.47099 | -2.38615 | 74 ft | 10 kts | 175° |
| 2026-04-23 15:34 | 53.47026 | -2.38679 | 74 ft | 14 kts | 221° |
| 2026-04-23 15:35 | 53.47012 | -2.38701 | 74 ft | 2 kts | 27° |
| 2026-04-23 15:35 | 53.47031 | -2.38689 | 74 ft | 0 kts | 59° |